Time;durP1;ratioP1;P1;durP2;ratioP2;P2;SDS_P1;SDS_P2;PMS_P1;PMS_P2;Temp;Humidity;BMP_temperature;BMP_pressure;BME280_temperature;BME280_humidity;BME280_pressure;Samples;Min_cycle;Max_cycle;Signal;HPM_P1;HPM_P2
2021/10/05 00:01:33;;;;;;;6.53;2.78;;;;;;;13.25;71.40;101115.94;5033960;28;20033;-48
2021/10/05 00:04:01;;;;;;;5.57;2.45;;;;;;;13.24;71.60;101125.25;5033690;28;20034;-48
2021/10/05 00:06:28;;;;;;;6.38;2.50;;;;;;;13.24;71.19;101128.81;5033752;28;20065;-48
2021/10/05 00:08:56;;;;;;;6.70;2.60;;;;;;;13.25;71.32;101127.69;5034025;28;20577;-47
2021/10/05 00:11:24;;;;;;;6.93;2.50;;;;;;;13.26;71.37;101129.34;5034026;28;20132;-46
2021/10/05 00:13:51;;;;;;;4.00;2.20;;;;;;;13.25;71.03;101132.34;5033478;28;20484;-50
2021/10/05 00:16:19;;;;;;;5.80;2.65;;;;;;;13.19;70.83;101124.16;5033238;28;20045;-45
2021/10/05 00:18:49;;;;;;;5.22;2.40;;;;;;;13.19;71.00;101124.16;5033395;28;20037;-48
2021/10/05 00:21:18;;;;;;;6.60;2.50;;;;;;;13.15;71.35;101122.25;5033854;28;20500;-49
2021/10/05 00:23:46;;;;;;;5.93;2.30;;;;;;;13.11;71.26;101134.88;5033560;28;20037;-50
2021/10/05 00:26:14;;;;;;;5.35;2.20;;;;;;;13.09;71.42;101131.59;5033527;28;20626;-50
2021/10/05 00:28:42;;;;;;;4.95;2.13;;;;;;;13.09;71.62;101129.66;5032815;28;20037;-49
2021/10/05 00:31:09;;;;;;;7.78;2.33;;;;;;;13.11;71.84;101127.47;5032323;28;20496;-49
2021/10/05 00:33:37;;;;;;;6.03;2.08;;;;;;;13.14;71.69;101121.44;5033366;28;20065;-49
2021/10/05 00:36:05;;;;;;;3.97;2.10;;;;;;;13.12;71.17;101107.22;5033384;28;20471;-48
2021/10/05 00:38:32;;;;;;;8.65;2.67;;;;;;;13.13;71.47;101116.25;5033122;28;20076;-48
2021/10/05 00:41:00;;;;;;;8.02;2.30;;;;;;;13.12;71.28;101109.94;5033554;28;20052;-48
2021/10/05 00:43:28;;;;;;;4.70;2.05;;;;;;;13.13;71.57;101103.41;5033108;28;20041;-47
2021/10/05 00:45:55;;;;;;;5.07;2.08;;;;;;;13.12;70.86;101107.22;5019828;28;20048;-48
2021/10/05 00:48:23;;;;;;;4.75;2.10;;;;;;;13.10;71.25;101093.00;5032852;28;20389;-48
2021/10/05 00:50:50;;;;;;;5.22;1.88;;;;;;;13.09;71.67;101094.09;5033164;28;20057;-47
2021/10/05 00:53:18;;;;;;;7.72;2.63;;;;;;;13.12;71.54;101090.81;5032384;28;20045;-48
2021/10/05 00:55:46;;;;;;;7.03;2.40;;;;;;;13.11;71.06;101078.22;5033034;28;20068;-47
2021/10/05 00:58:13;;;;;;;5.88;2.55;;;;;;;13.09;70.72;101077.69;5033016;28;20044;-49
2021/10/05 01:00:41;;;;;;;6.53;2.70;;;;;;;13.04;70.83;101083.19;5033075;28;20058;-50
2021/10/05 01:03:09;;;;;;;4.35;2.00;;;;;;;12.98;71.86;101073.34;5032879;28;20033;-49
2021/10/05 01:05:37;;;;;;;8.95;2.38;;;;;;;12.94;71.66;101069.50;5033595;28;20080;-49
2021/10/05 01:08:05;;;;;;;5.60;2.08;;;;;;;12.91;72.07;101061.88;5040012;28;20045;-48
2021/10/05 01:10:33;;;;;;;5.68;2.33;;;;;;;12.92;71.35;101052.59;5041861;28;20051;-47
2021/10/05 01:13:00;;;;;;;4.35;2.28;;;;;;;12.91;71.83;101050.94;5041183;28;20053;-47
2021/10/05 01:15:29;;;;;;;8.23;2.05;;;;;;;12.88;71.59;101051.50;5041273;28;20044;-49
2021/10/05 01:17:58;;;;;;;4.82;1.75;;;;;;;12.83;71.33;101054.25;5043259;28;20045;-48
2021/10/05 01:20:25;;;;;;;6.35;2.33;;;;;;;12.79;71.42;101049.34;5039380;28;20591;-51
2021/10/05 01:22:53;;;;;;;4.88;2.33;;;;;;;12.75;71.89;101047.44;5034944;28;20042;-49
2021/10/05 01:25:21;;;;;;;6.45;2.45;;;;;;;12.67;72.53;101037.84;5033594;28;20033;-53
2021/10/05 01:27:51;;;;;;;5.93;2.10;;;;;;;12.65;72.52;101026.41;5033802;28;20045;-49
2021/10/05 01:30:21;;;;;;;5.15;2.28;;;;;;;12.69;73.09;101027.47;5032095;28;20045;-49
2021/10/05 01:32:49;;;;;;;3.97;2.00;;;;;;;12.74;72.40;101026.63;5037925;28;20056;-51
2021/10/05 01:35:18;;;;;;;7.68;2.75;;;;;;;12.72;72.57;101018.72;5045038;28;20049;-48
2021/10/05 01:37:47;;;;;;;5.60;2.35;;;;;;;12.77;72.76;101017.88;5046492;28;20129;-47
2021/10/05 01:40:15;;;;;;;5.85;2.30;;;;;;;12.81;72.06;101012.69;5036371;28;20043;-48
2021/10/05 01:42:42;;;;;;;4.53;2.15;;;;;;;12.79;72.67;101008.31;5041243;28;20405;-48
2021/10/05 01:45:10;;;;;;;5.32;2.28;;;;;;;12.76;72.79;101008.84;5031486;28;20042;-47
2021/10/05 01:47:39;;;;;;;7.28;1.75;;;;;;;12.76;72.39;101016.25;5037522;28;20038;-47
2021/10/05 01:50:07;;;;;;;6.90;2.25;;;;;;;12.74;72.73;101011.03;5034420;28;20491;-47
2021/10/05 01:52:36;;;;;;;6.80;2.30;;;;;;;12.74;72.94;101008.31;5032271;28;20103;-50
2021/10/05 01:55:07;;;;;;;6.07;2.17;;;;;;;12.71;72.51;101000.69;5031424;28;20048;-48
2021/10/05 01:57:35;;;;;;;4.20;1.63;;;;;;;12.67;72.71;101002.31;5047712;28;20037;-48
2021/10/05 02:00:05;;;;;;;3.97;1.90;;;;;;;12.62;73.30;101005.06;5037974;28;20053;-49
2021/10/05 02:02:34;;;;;;;8.40;2.30;;;;;;;12.61;73.44;100992.50;5047897;28;20038;-48
2021/10/05 02:05:02;;;;;;;4.07;1.75;;;;;;;12.63;73.67;100989.47;5044184;28;20048;-48
2021/10/05 02:07:29;;;;;;;5.68;2.00;;;;;;;12.65;73.50;100979.94;5047676;28;20033;-48
2021/10/05 02:09:57;;;;;;;3.20;1.77;;;;;;;12.64;72.85;100972.81;5031258;28;20054;-47
2021/10/05 02:12:27;;;;;;;4.75;2.15;;;;;;;12.59;73.57;100972.81;5034220;28;20056;-49
2021/10/05 02:14:55;;;;;;;6.60;1.98;;;;;;;12.58;73.99;100972.03;5042866;28;20048;-49
2021/10/05 02:17:22;;;;;;;4.32;1.80;;;;;;;12.57;73.35;100966.81;5050115;28;20057;-49
2021/10/05 02:19:50;;;;;;;4.95;2.10;;;;;;;12.53;73.81;100957.53;5044244;28;20046;-48
2021/10/05 02:22:17;;;;;;;6.00;2.20;;;;;;;12.51;74.44;100955.09;5045365;28;20446;-49
2021/10/05 02:24:46;;;;;;;3.35;1.95;;;;;;;12.54;73.91;100950.97;5028260;28;20029;-48
2021/10/05 02:27:16;;;;;;;4.80;2.13;;;;;;;12.50;74.20;100949.88;5046243;28;20508;-48
2021/10/05 02:29:44;;;;;;;3.45;2.25;;;;;;;12.48;74.55;100950.19;5050946;28;20049;-49
2021/10/05 02:32:13;;;;;;;6.20;2.10;;;;;;;12.44;74.87;100942.81;5040693;28;20045;-50
2021/10/05 02:34:41;;;;;;;9.43;2.08;;;;;;;12.43;74.85;100944.72;5047217;28;20148;-49
2021/10/05 02:37:09;;;;;;;3.22;1.67;;;;;;;12.44;75.02;100935.44;5050353;28;20610;-49
2021/10/05 02:39:38;;;;;;;3.90;2.05;;;;;;;12.49;74.82;100940.06;5049885;28;20059;-47
2021/10/05 02:42:05;;;;;;;3.92;2.03;;;;;;;12.54;74.85;100937.31;5036456;28;20046;-49
2021/10/05 02:44:33;;;;;;;4.05;1.83;;;;;;;12.60;74.75;100929.91;5031018;28;20045;-48
2021/10/05 02:47:01;;;;;;;6.90;2.47;;;;;;;12.60;74.52;100933.44;5037757;28;20037;-49
2021/10/05 02:49:29;;;;;;;5.40;2.13;;;;;;;12.62;73.76;100928.53;5043800;28;20579;-48
2021/10/05 02:51:56;;;;;;;3.75;2.13;;;;;;;12.60;74.04;100919.78;5047672;28;20049;-49
2021/10/05 02:54:24;;;;;;;6.15;2.20;;;;;;;12.62;74.18;100917.59;5041920;28;20038;-49
2021/10/05 02:56:52;;;;;;;5.03;2.00;;;;;;;12.62;74.42;100911.31;5048581;28;20194;-49
2021/10/05 02:59:19;;;;;;;3.92;1.98;;;;;;;12.60;74.57;100900.66;5051522;28;20041;-48
2021/10/05 03:01:47;;;;;;;5.13;2.03;;;;;;;12.60;74.07;100897.91;5050017;28;20057;-48
2021/10/05 03:04:15;;;;;;;3.90;1.95;;;;;;;12.58;74.75;100889.19;5039061;28;20076;-49
2021/10/05 03:06:42;;;;;;;3.58;1.88;;;;;;;12.56;74.65;100891.41;5051168;28;20496;-49
2021/10/05 03:09:10;;;;;;;3.58;1.90;;;;;;;12.54;75.12;100886.19;5050762;28;20052;-49
2021/10/05 03:11:38;;;;;;;4.60;2.05;;;;;;;12.53;75.06;100870.91;5051203;28;20099;-49
2021/10/05 03:14:06;;;;;;;5.00;2.00;;;;;;;12.52;74.95;100874.72;5041010;28;20045;-46
2021/10/05 03:16:33;;;;;;;5.07;1.92;;;;;;;12.52;75.34;100868.44;5050797;28;20056;-49
2021/10/05 03:19:01;;;;;;;6.05;2.40;;;;;;;12.54;75.16;100860.78;5037154;28;20041;-49
2021/10/05 03:21:29;;;;;;;5.47;2.28;;;;;;;12.56;75.16;100858.59;5051022;28;20049;-46
2021/10/05 03:23:57;;;;;;;6.38;2.13;;;;;;;12.57;74.61;100854.75;5043991;28;20498;-48
2021/10/05 03:26:25;;;;;;;4.30;1.95;;;;;;;12.53;74.80;100851.78;5044968;28;20041;-46
2021/10/05 03:28:53;;;;;;;5.15;1.90;;;;;;;12.53;75.03;100848.19;5051543;28;20045;-48
2021/10/05 03:31:20;;;;;;;3.55;1.80;;;;;;;12.52;74.93;100847.41;5052624;28;20053;-49
2021/10/05 03:33:48;;;;;;;6.57;2.17;;;;;;;12.54;74.76;100844.38;5050560;28;20468;-49
2021/10/05 03:36:15;;;;;;;2.15;1.63;;;;;;;12.56;75.28;100842.19;5042090;28;20048;-48
2021/10/05 03:38:44;;;;;;;5.40;2.42;;;;;;;12.56;74.82;100836.72;5054313;28;20041;-46
2021/10/05 03:41:12;;;;;;;2.88;1.92;;;;;;;12.57;75.10;100835.63;5054224;28;20589;-49
2021/10/05 03:43:40;;;;;;;3.80;2.08;;;;;;;12.57;74.92;100830.97;5034552;28;20959;-49
2021/10/05 03:46:08;;;;;;;5.07;2.60;;;;;;;12.58;75.03;100826.34;5034260;28;20060;-49
2021/10/05 03:48:36;;;;;;;5.00;1.95;;;;;;;12.57;74.98;100830.16;5044681;28;20048;-50
2021/10/05 03:51:04;;;;;;;4.88;1.90;;;;;;;12.56;75.36;100825.81;5054062;28;20415;-50
2021/10/05 03:53:31;;;;;;;3.75;2.20;;;;;;;12.54;75.14;100819.78;5050716;28;20045;-48
2021/10/05 03:55:59;;;;;;;7.55;2.45;;;;;;;12.52;75.28;100819.25;5044646;28;20052;-48
2021/10/05 03:58:27;;;;;;;3.88;1.92;;;;;;;12.50;74.72;100819.53;5054430;28;20052;-49
2021/10/05 04:00:54;;;;;;;6.20;2.00;;;;;;;12.48;75.61;100808.06;5054153;28;20052;-49
2021/10/05 04:03:24;;;;;;;7.70;2.53;;;;;;;12.48;75.21;100799.03;5040759;28;20042;-48
2021/10/05 04:05:52;;;;;;;4.70;2.13;;;;;;;12.48;75.16;100801.78;5045858;28;20045;-47
2021/10/05 04:08:19;;;;;;;3.38;1.73;;;;;;;12.47;75.24;100789.22;5048574;28;20151;-48
2021/10/05 04:10:47;;;;;;;5.95;1.90;;;;;;;12.46;75.61;100787.56;5026241;28;20041;-48
2021/10/05 04:13:35;;;;;;;5.25;2.35;;;;;;;12.45;74.89;100781.28;5045106;28;20037;-48
2021/10/05 04:16:22;;;;;;;6.93;2.13;;;;;;;12.42;75.78;100778.31;5028884;28;20057;-47
2021/10/05 04:19:10;;;;;;;4.30;2.17;;;;;;;12.42;75.31;100781.06;5052177;28;20098;-48
2021/10/05 04:21:57;;;;;;;5.95;2.20;;;;;;;12.42;75.49;100781.88;5053369;28;20049;-46
2021/10/05 04:24:45;;;;;;;3.35;1.63;;;;;;;12.43;75.19;100771.75;5048379;28;20087;-49
2021/10/05 04:27:34;;;;;;;5.15;1.83;;;;;;;12.43;75.37;100769.00;5039371;28;20060;-48
2021/10/05 04:30:03;;;;;;;3.63;2.03;;;;;;;12.42;75.61;100767.38;5053832;28;20458;-49
2021/10/05 04:32:30;;;;;;;4.07;2.00;;;;;;;12.42;75.38;100770.13;5047540;28;20056;-50
2021/10/05 04:34:58;;;;;;;5.55;1.58;;;;;;;12.40;75.10;100761.38;5031654;28;20052;-50
2021/10/05 04:37:26;;;;;;;3.55;1.90;;;;;;;12.38;75.78;100758.91;5035458;28;20428;-49
2021/10/05 04:39:53;;;;;;;5.20;2.17;;;;;;;12.36;75.19;100752.91;5025159;28;20041;-49
2021/10/05 04:42:21;;;;;;;3.42;2.10;;;;;;;12.35;76.11;100754.03;5033518;28;20050;-49
2021/10/05 04:44:49;;;;;;;5.40;2.00;;;;;;;12.36;75.93;100737.38;5032655;28;20057;-49
2021/10/05 04:47:16;;;;;;;4.70;2.33;;;;;;;12.33;75.67;100735.19;5036385;28;20791;-49
2021/10/05 04:49:46;;;;;;;5.60;2.05;;;;;;;12.34;76.13;100734.09;5047792;28;20071;-50
2021/10/05 04:52:14;;;;;;;3.53;2.00;;;;;;;12.35;75.53;100730.25;5045272;28;20057;-49
2021/10/05 04:54:41;;;;;;;2.53;1.77;;;;;;;12.34;75.48;100736.81;5046915;28;20048;-50
2021/10/05 04:57:09;;;;;;;5.47;2.33;;;;;;;12.30;75.64;100735.75;5047409;28;20495;-48
2021/10/05 04:59:37;;;;;;;4.72;2.22;;;;;;;12.28;75.67;100737.94;5037271;28;20381;-49
2021/10/05 05:02:04;;;;;;;3.35;2.20;;;;;;;12.27;75.50;100733.59;5048309;28;20395;-49
2021/10/05 05:04:32;;;;;;;3.78;1.80;;;;;;;12.25;75.75;100733.03;5043402;28;20492;-49
2021/10/05 05:07:00;;;;;;;3.83;1.98;;;;;;;12.26;75.73;100731.94;5048638;28;20041;-51
2021/10/05 05:09:27;;;;;;;7.15;2.30;;;;;;;12.25;75.69;100721.31;5042164;28;20041;-50
2021/10/05 05:11:55;;;;;;;8.18;2.13;;;;;;;12.23;75.80;100718.84;5052768;28;20048;-52
2021/10/05 05:14:22;;;;;;;7.93;3.00;;;;;;;12.24;75.68;100720.50;5043572;28;20033;-50
2021/10/05 05:16:50;;;;;;;6.07;2.00;;;;;;;12.26;75.76;100710.06;5050613;28;20449;-49
2021/10/05 05:19:18;;;;;;;5.95;2.10;;;;;;;12.27;75.90;100714.47;5036222;28;20037;-49
2021/10/05 05:21:45;;;;;;;4.47;1.90;;;;;;;12.27;75.63;100711.72;5040230;28;20060;-49
2021/10/05 05:24:13;;;;;;;4.47;1.98;;;;;;;12.26;75.04;100712.81;5044983;28;20044;-47
2021/10/05 05:26:41;;;;;;;4.60;1.88;;;;;;;12.24;75.66;100698.66;5052667;28;20049;-49
2021/10/05 05:29:08;;;;;;;3.72;1.88;;;;;;;12.27;75.86;100702.72;5042176;28;20531;-50
2021/10/05 05:31:36;;;;;;;5.32;2.25;;;;;;;12.26;75.52;100695.63;5051998;28;20087;-48
2021/10/05 05:34:03;;;;;;;5.20;2.10;;;;;;;12.25;75.70;100689.34;5037616;28;20037;-49
2021/10/05 05:36:31;;;;;;;7.10;2.13;;;;;;;12.25;75.37;100686.59;5050607;28;20029;-48
2021/10/05 05:39:02;;;;;;;5.60;2.13;;;;;;;12.24;75.24;100682.25;5041051;28;20041;-48
2021/10/05 05:41:31;;;;;;;4.13;2.20;;;;;;;12.19;75.81;100679.53;5049264;28;20132;-49
2021/10/05 05:43:58;;;;;;;5.63;2.20;;;;;;;12.20;75.38;100672.97;5031393;28;20076;-49
2021/10/05 05:46:26;;;;;;;4.45;2.33;;;;;;;12.20;75.76;100669.44;5032517;28;20049;-49
2021/10/05 05:48:54;;;;;;;4.93;2.58;;;;;;;12.22;75.33;100673.53;5038657;28;20051;-51
2021/10/05 05:51:21;;;;;;;5.38;2.22;;;;;;;12.24;74.99;100671.31;5051879;28;20044;-47
2021/10/05 05:53:49;;;;;;;6.78;2.70;;;;;;;12.26;75.31;100668.28;5043827;28;20044;-47
2021/10/05 05:56:16;;;;;;;5.30;2.75;;;;;;;12.27;75.18;100670.75;5051584;28;20048;-47
2021/10/05 05:58:44;;;;;;;5.55;2.63;;;;;;;12.27;75.05;100659.81;5042467;28;20062;-48
2021/10/05 06:01:12;;;;;;;12.25;2.90;;;;;;;12.28;75.26;100657.91;5040735;28;20393;-48
2021/10/05 06:03:41;;;;;;;16.05;4.38;;;;;;;12.27;74.92;100653.56;4399032;28;10001885;-48
2021/10/05 06:06:09;;;;;;;8.10;2.92;;;;;;;12.27;75.43;100653.56;5033217;28;20253;-47
2021/10/05 06:08:36;;;;;;;5.18;2.75;;;;;;;12.21;75.22;100652.75;5045509;28;20049;-47
2021/10/05 06:11:04;;;;;;;5.57;2.58;;;;;;;12.20;75.08;100647.59;5046132;28;20408;-48
2021/10/05 06:13:32;;;;;;;5.95;2.40;;;;;;;12.15;75.00;100642.97;5031996;28;20420;-44
2021/10/05 06:16:00;;;;;;;5.47;2.42;;;;;;;12.14;75.80;100646.78;5032562;28;20042;-48
2021/10/05 06:18:27;;;;;;;6.05;2.28;;;;;;;12.13;75.64;100648.72;5040736;28;20045;-46
2021/10/05 06:20:55;;;;;;;9.50;2.40;;;;;;;12.18;75.82;100636.13;5049687;28;20057;-50
2021/10/05 06:23:23;;;;;;;6.50;2.70;;;;;;;12.21;75.93;100638.28;5044655;28;20041;-51
2021/10/05 06:25:54;;;;;;;7.95;3.20;;;;;;;12.20;75.17;100634.75;5043115;28;20033;-47
2021/10/05 06:28:22;;;;;;;6.85;3.22;;;;;;;12.24;75.20;100633.09;5045230;28;20505;-47
2021/10/05 06:30:49;;;;;;;9.07;2.72;;;;;;;12.23;75.23;100631.44;5045811;28;20488;-48
2021/10/05 06:33:17;;;;;;;21.13;3.70;;;;;;;12.21;74.82;100627.34;5038338;28;20123;-50
2021/10/05 06:35:45;;;;;;;9.82;2.45;;;;;;;12.20;75.11;100632.00;5045551;28;20477;-50
2021/10/05 06:38:13;;;;;;;7.25;2.63;;;;;;;12.18;75.77;100626.00;5036613;28;20455;-44
2021/10/05 06:40:44;;;;;;;7.57;2.78;;;;;;;12.16;75.69;100622.75;5030331;28;20485;-51
2021/10/05 06:43:12;;;;;;;7.45;3.05;;;;;;;12.21;75.20;100617.25;5030829;28;20065;-47
2021/10/05 06:45:40;;;;;;;5.65;2.70;;;;;;;12.22;75.37;100618.06;5030859;28;20041;-49
2021/10/05 06:48:08;;;;;;;10.73;2.67;;;;;;;12.22;75.21;100613.44;5032349;28;20041;-51
2021/10/05 06:50:36;;;;;;;28.02;4.93;;;;;;;12.27;75.98;100610.66;5051354;28;20037;-48
2021/10/05 06:53:04;;;;;;;15.45;3.78;;;;;;;12.29;75.51;100619.38;5039192;28;20045;-45
2021/10/05 06:55:32;;;;;;;6.15;2.70;;;;;;;12.31;75.08;100616.34;5042712;28;20064;-47
2021/10/05 06:58:00;;;;;;;9.60;2.88;;;;;;;12.31;74.97;100610.88;5041759;28;20042;-49
2021/10/05 07:00:28;;;;;;;5.13;2.60;;;;;;;12.27;75.24;100616.13;5048998;28;20124;-47
2021/10/05 07:03:16;;;;;;;3.95;2.63;;;;;;;12.26;75.01;100622.66;5050400;28;20052;-46
2021/10/05 07:06:03;;;;;;;7.68;2.55;;;;;;;12.27;75.66;100613.38;5051035;28;20048;-48
2021/10/05 07:08:31;;;;;;;6.20;2.60;;;;;;;12.31;75.24;100609.00;5048544;28;20037;-50
2021/10/05 07:10:59;;;;;;;12.07;5.75;;;;;;;12.39;76.51;100612.19;5054753;28;20057;-49
2021/10/05 07:13:26;;;;;;;7.78;3.17;;;;;;;12.48;75.65;100610.47;5045977;28;20045;-49
2021/10/05 07:15:54;;;;;;;7.15;2.70;;;;;;;12.49;74.68;100612.13;5039838;28;20048;-53
2021/10/05 07:18:22;;;;;;;8.40;2.78;;;;;;;12.40;74.93;100608.38;5048786;28;20529;-48
2021/10/05 07:20:49;;;;;;;8.75;3.47;;;;;;;12.33;75.43;100595.84;5038860;28;20128;-46
2021/10/05 07:23:17;;;;;;;10.93;2.58;;;;;;;12.32;75.68;100602.41;5045760;28;20387;-48
2021/10/05 07:25:44;;;;;;;20.35;3.30;;;;;;;12.29;76.22;100596.69;5054545;28;20767;-45
2021/10/05 07:28:12;;;;;;;17.00;4.90;;;;;;;12.34;76.08;100597.50;5043240;28;20049;-47
2021/10/05 07:30:43;;;;;;;10.13;3.33;;;;;;;12.39;75.82;100593.91;5037316;28;20412;-46
2021/10/05 07:33:11;;;;;;;7.82;2.95;;;;;;;12.36;75.50;100583.53;5054686;28;20045;-47
2021/10/05 07:35:38;;;;;;;7.40;2.80;;;;;;;12.40;75.72;100578.31;5036658;28;20065;-46
2021/10/05 07:38:06;;;;;;;6.30;2.97;;;;;;;12.41;75.59;100578.03;5051825;28;20389;-47
2021/10/05 07:40:34;;;;;;;7.80;3.05;;;;;;;12.41;75.89;100563.53;5046516;28;20041;-44
2021/10/05 07:43:02;;;;;;;12.93;3.80;;;;;;;12.44;76.08;100571.19;5033980;28;20084;-47
2021/10/05 07:45:31;;;;;;;5.90;2.45;;;;;;;12.42;76.01;100573.38;5041702;28;20045;-48
2021/10/05 07:47:59;;;;;;;8.88;3.30;;;;;;;12.40;76.10;100560.00;5048930;28;20037;-46
2021/10/05 07:50:27;;;;;;;10.60;2.85;;;;;;;12.45;76.15;100564.59;5043463;28;20033;-46
2021/10/05 07:52:57;;;;;;;8.85;2.72;;;;;;;12.40;75.72;100559.19;5046832;28;20500;-46
2021/10/05 07:55:26;;;;;;;6.43;3.08;;;;;;;12.42;76.11;100552.34;5053770;28;20033;-47
2021/10/05 07:57:53;;;;;;;4.22;2.45;;;;;;;12.42;75.66;100548.78;5053668;28;20471;-47
2021/10/05 08:00:21;;;;;;;5.75;2.70;;;;;;;12.41;76.27;100544.41;5038829;28;20462;-44
2021/10/05 08:02:49;;;;;;;6.63;2.83;;;;;;;12.44;75.98;100544.66;5054231;28;20049;-46
2021/10/05 08:05:17;;;;;;;10.38;2.95;;;;;;;12.42;75.82;100546.06;5054245;28;20136;-48
2021/10/05 08:08:17;;;;;;;9.70;3.20;;;;;;;12.39;76.16;100530.22;4953727;28;20048;-46
2021/10/05 08:10:45;;;;;;;6.88;3.50;;;;;;;12.40;76.00;100531.88;4962940;28;20052;-47
2021/10/05 08:13:12;;;;;;;6.00;2.97;;;;;;;12.44;76.01;100524.72;4956908;28;20055;-48
2021/10/05 08:15:40;;;;;;;13.60;3.72;;;;;;;12.51;76.48;100523.28;4972590;28;20061;-47
2021/10/05 08:18:08;;;;;;;7.25;3.20;;;;;;;12.57;76.90;100515.84;4965431;28;20050;-47
2021/10/05 08:20:35;;;;;;;8.50;3.15;;;;;;;12.58;76.59;100512.03;4966429;28;20057;-47
2021/10/05 08:23:03;;;;;;;6.93;3.00;;;;;;;12.62;76.23;100510.31;4937240;28;20610;-44
2021/10/05 08:25:31;;;;;;;8.88;3.00;;;;;;;12.65;76.91;100508.94;4990516;28;20048;-48
2021/10/05 08:27:58;;;;;;;9.23;2.90;;;;;;;12.64;76.47;100508.13;5043858;28;20044;-46
2021/10/05 08:30:26;;;;;;;7.97;3.13;;;;;;;12.70;76.65;100508.88;5044652;28;20571;-49
2021/10/05 08:32:55;;;;;;;9.35;2.92;;;;;;;12.71;76.62;100505.84;5032754;28;20071;-47
2021/10/05 08:35:23;;;;;;;11.00;3.15;;;;;;;12.70;77.04;100495.19;5026828;28;20492;-48
2021/10/05 08:37:52;;;;;;;7.15;3.10;;;;;;;12.74;76.34;100497.06;5038222;28;20045;-50
2021/10/05 08:40:20;;;;;;;7.82;3.00;;;;;;;12.78;76.79;100495.38;5032030;28;20044;-47
2021/10/05 08:42:48;;;;;;;6.80;2.67;;;;;;;12.82;77.00;100478.41;5031926;28;20436;-48
2021/10/05 08:45:16;;;;;;;11.20;3.10;;;;;;;12.84;77.12;100476.19;5043579;28;20859;-47
2021/10/05 08:47:44;;;;;;;5.45;2.65;;;;;;;12.88;77.11;100469.84;5045283;28;20491;-46
2021/10/05 08:50:12;;;;;;;13.15;4.00;;;;;;;12.98;77.54;100460.69;5052608;28;20037;-44
2021/10/05 08:52:43;;;;;;;12.00;3.78;;;;;;;13.01;77.25;100460.09;5040420;28;20034;-45
2021/10/05 08:55:11;;;;;;;6.45;2.78;;;;;;;13.06;77.02;100451.88;5050077;28;20075;-48
2021/10/05 08:57:39;;;;;;;9.35;3.22;;;;;;;13.04;77.19;100448.59;5047631;28;20056;-47
2021/10/05 09:00:07;;;;;;;9.68;3.42;;;;;;;13.05;77.67;100442.00;5050873;28;20041;-48
2021/10/05 09:02:53;;;;;;;7.70;3.08;;;;;;;13.09;77.10;100434.84;5045824;28;20056;-48
2021/10/05 09:05:25;;;;;;;10.70;3.25;;;;;;;13.12;77.40;100428.78;5047292;28;20057;-46
2021/10/05 09:07:56;;;;;;;6.88;2.92;;;;;;;13.17;77.49;100427.91;5042514;28;20072;-48
2021/10/05 09:10:31;;;;;;;6.70;2.65;;;;;;;13.21;77.84;100421.56;5051738;28;20068;-46
2021/10/05 09:12:59;;;;;;;5.65;2.80;;;;;;;13.26;77.45;100422.59;5047935;28;20053;-48
2021/10/05 09:15:30;;;;;;;9.98;2.97;;;;;;;13.32;77.21;100405.00;5052447;28;20080;-47
2021/10/05 09:17:59;;;;;;;7.15;2.90;;;;;;;13.33;77.29;100406.66;5052498;28;20045;-48
2021/10/05 09:20:29;;;;;;;8.02;2.85;;;;;;;13.35;77.11;100404.44;5052693;28;20037;-47
2021/10/05 09:23:03;;;;;;;7.45;2.95;;;;;;;13.38;77.27;100399.16;5043970;28;20045;-45
2021/10/05 09:25:37;;;;;;;9.85;3.30;;;;;;;13.41;76.99;100400.50;5035363;28;20499;-47
2021/10/05 09:28:29;;;;;;;9.27;2.92;;;;;;;13.46;77.47;100394.94;5051204;28;20149;-47
2021/10/05 09:31:02;;;;;;;7.80;3.15;;;;;;;13.51;77.13;100396.78;5038187;28;20033;-48
2021/10/05 09:33:31;;;;;;;7.90;3.20;;;;;;;13.55;77.44;100384.13;5035135;28;20056;-47
2021/10/05 09:35:58;;;;;;;9.95;3.08;;;;;;;13.58;77.10;100392.56;5035927;28;20036;-47
2021/10/05 09:38:28;;;;;;;6.45;2.72;;;;;;;13.59;77.65;100372.28;5017685;28;20088;-46
2021/10/05 09:40:57;;;;;;;13.07;3.40;;;;;;;13.66;77.61;100373.81;5032109;28;20104;-49
2021/10/05 09:43:25;;;;;;;8.73;3.40;;;;;;;13.72;76.81;100369.91;5031774;28;20045;-47
2021/10/05 09:45:53;;;;;;;6.28;2.70;;;;;;;13.79;76.83;100370.31;5031140;28;20049;-48
2021/10/05 09:48:23;;;;;;;8.07;2.95;;;;;;;13.84;76.87;100362.00;5035140;28;20064;-50
2021/10/05 09:50:51;;;;;;;6.95;3.10;;;;;;;13.86;76.95;100357.06;5051938;28;20033;-48
2021/10/05 09:53:19;;;;;;;6.22;2.45;;;;;;;13.90;77.19;100355.31;5039438;28;20045;-47
2021/10/05 09:55:47;;;;;;;9.50;3.08;;;;;;;13.94;76.88;100342.66;5036946;28;20045;-47
2021/10/05 09:58:15;;;;;;;6.10;2.78;;;;;;;13.97;76.26;100336.56;5045931;28;20052;-48
2021/10/05 10:00:48;;;;;;;6.88;2.50;;;;;;;13.98;76.70;100348.34;5048396;28;20037;-47
2021/10/05 10:03:17;;;;;;;8.88;2.80;;;;;;;14.04;76.93;100338.91;5031838;28;20052;-48
2021/10/05 10:05:46;;;;;;;12.18;3.17;;;;;;;14.09;76.98;100335.25;5041389;28;20408;-48
2021/10/05 10:08:19;;;;;;;8.15;3.35;;;;;;;14.13;76.36;100337.09;5031078;28;20041;-47
2021/10/05 10:10:46;;;;;;;5.35;2.60;;;;;;;14.21;76.38;100335.56;5031651;28;20041;-48
2021/10/05 10:13:19;;;;;;;8.63;3.45;;;;;;;14.26;76.58;100329.97;5043704;28;20128;-48
2021/10/05 10:15:48;;;;;;;9.70;2.90;;;;;;;14.30;75.86;100335.69;5043985;28;20077;-48
2021/10/05 10:18:22;;;;;;;6.90;2.67;;;;;;;14.39;75.80;100328.38;5033510;28;20045;-50
2021/10/05 10:21:05;;;;;;;11.23;3.05;;;;;;;14.41;75.51;100339.84;5033796;28;20047;-49
2021/10/05 10:23:34;;;;;;;13.60;3.35;;;;;;;14.52;74.25;100333.00;5040381;28;20467;-48
2021/10/05 10:26:05;;;;;;;6.65;2.60;;;;;;;14.55;74.55;100326.97;5035424;28;20041;-46
2021/10/05 10:28:40;;;;;;;8.57;2.50;;;;;;;14.61;74.46;100325.72;5038100;28;20053;-48
2021/10/05 10:31:14;;;;;;;7.30;3.20;;;;;;;14.67;74.52;100320.94;5032358;28;20095;-48
2021/10/05 10:33:43;;;;;;;6.30;2.70;;;;;;;14.72;73.51;100314.53;5042899;28;20048;-47
2021/10/05 10:36:11;;;;;;;6.38;2.78;;;;;;;14.75;73.16;100314.72;5047753;28;20051;-47
2021/10/05 10:38:46;;;;;;;11.07;2.70;;;;;;;14.76;73.43;100327.31;5032498;28;20037;-44
2021/10/05 10:41:16;;;;;;;7.05;3.03;;;;;;;14.79;73.02;100328.63;5047176;28;20492;-46
2021/10/05 10:44:02;;;;;;;10.52;2.80;;;;;;;14.78;73.78;100330.56;5031346;28;20030;-46
2021/10/05 10:46:35;;;;;;;12.60;3.00;;;;;;;14.80;74.38;100322.84;5031347;28;20053;-46
2021/10/05 10:49:11;;;;;;;4.68;2.10;;;;;;;14.89;75.13;100329.22;5035061;28;20045;-48
2021/10/05 10:51:41;;;;;;;6.00;2.65;;;;;;;14.91;73.79;100321.50;5047173;28;20056;-47
2021/10/05 10:54:17;;;;;;;9.45;2.72;;;;;;;14.85;73.22;100317.25;5047589;28;20041;-51
2021/10/05 10:56:46;;;;;;;10.20;2.60;;;;;;;14.86;73.22;100312.56;5041173;28;20091;-48
2021/10/05 10:59:14;;;;;;;8.35;2.70;;;;;;;14.93;74.02;100298.41;5047816;28;20499;-48
2021/10/05 11:01:50;;;;;;;4.72;2.03;;;;;;;14.95;73.58;100307.16;5042025;28;20045;-49
2021/10/05 11:04:19;;;;;;;9.23;2.70;;;;;;;14.92;73.66;100305.84;5042853;28;20095;-47
2021/10/05 11:06:47;;;;;;;8.82;2.92;;;;;;;14.89;73.97;100310.03;5050390;28;20045;-49
2021/10/05 11:09:15;;;;;;;8.95;2.50;;;;;;;14.93;73.21;100306.66;5044028;28;20049;-47
2021/10/05 11:11:43;;;;;;;13.05;3.05;;;;;;;14.90;73.30;100303.41;5029843;28;20048;-46
2021/10/05 11:14:13;;;;;;;4.97;2.13;;;;;;;14.89;73.85;100295.50;5050671;28;20396;-47
2021/10/05 11:16:42;;;;;;;7.60;2.80;;;;;;;14.87;73.85;100295.00;5050724;28;20056;-47
2021/10/05 11:19:12;;;;;;;8.15;2.72;;;;;;;14.87;73.77;100295.81;5050606;28;20033;-48
2021/10/05 11:21:42;;;;;;;15.10;2.80;;;;;;;14.89;73.98;100282.59;5040845;28;20037;-46
2021/10/05 11:24:14;;;;;;;6.57;2.50;;;;;;;14.96;74.06;100287.66;5049240;28;20041;-47
2021/10/05 11:26:44;;;;;;;6.30;2.78;;;;;;;14.97;74.23;100278.28;5050776;28;20048;-49
2021/10/05 11:29:20;;;;;;;4.25;2.10;;;;;;;14.96;74.52;100271.19;5050376;28;20037;-47
2021/10/05 11:31:49;;;;;;;;;;;;;;;14.94;74.55;100262.47;5042453;28;20052;-47
2021/10/05 11:34:18;;;;;;;8.23;2.30;;;;;;;14.98;74.14;100257.16;5050105;28;19947;-50